createdAt,value
2023-04-11T00:00:09.096Z,2.45
2023-04-11T00:02:41.809Z,2.72
2023-04-11T00:08:00.909Z,2.53
2023-04-11T00:10:28.761Z,2.40
2023-04-11T00:12:57.382Z,2.42
2023-04-11T00:15:32.612Z,2.17
2023-04-11T00:18:05.740Z,2.42
2023-04-11T00:20:32.738Z,2.40
2023-04-11T00:23:04.698Z,2.70
2023-04-11T00:25:33.145Z,2.20
2023-04-11T00:28:26.043Z,2.30
2023-04-11T00:30:52.749Z,2.42
2023-04-11T00:33:20.787Z,2.40
2023-04-11T00:35:48.847Z,2.30
2023-04-11T00:38:16.743Z,2.50
2023-04-11T00:40:44.916Z,2.50
2023-04-11T00:43:21.702Z,2.15
2023-04-11T00:45:48.886Z,2.70
2023-04-11T00:51:08.980Z,2.25
2023-04-11T00:53:41.421Z,2.58
2023-04-11T00:56:11.213Z,2.67
2023-04-11T00:58:40.829Z,2.58
2023-04-11T01:01:16.593Z,2.28
2023-04-11T01:03:45.602Z,2.53
2023-04-11T01:06:19.785Z,3.08
2023-04-11T01:08:47.553Z,2.50
2023-04-11T01:14:10.680Z,2.50
2023-04-11T01:16:38.712Z,2.42
2023-04-11T01:19:07.155Z,2.58
2023-04-11T01:24:28.682Z,2.65
2023-04-11T01:27:01.758Z,2.70
2023-04-11T01:29:28.712Z,2.20
2023-04-11T01:32:01.744Z,1.98
2023-04-11T01:34:54.815Z,2.47
2023-04-11T01:37:27.975Z,2.25
2023-04-11T01:39:54.982Z,2.35
2023-04-11T01:45:32.887Z,2.70
2023-04-11T01:48:07.074Z,2.50
2023-04-11T01:50:34.888Z,2.35
2023-04-11T01:53:06.696Z,2.92
2023-04-11T01:55:34.684Z,2.72
2023-04-11T01:58:02.696Z,2.50
2023-04-11T02:00:35.732Z,2.22
2023-04-11T02:03:03.515Z,2.28
2023-04-11T02:05:57.046Z,2.40
2023-04-11T02:08:24.708Z,2.13
2023-04-11T02:14:44.358Z,2.40
2023-04-11T02:23:09.550Z,2.10
2023-04-11T02:25:37.175Z,2.33
2023-04-11T02:30:57.080Z,2.30
2023-04-11T02:33:30.774Z,1.67
2023-04-11T02:35:58.729Z,1.75
2023-04-11T02:38:26.745Z,2.15
2023-04-11T02:41:00.173Z,1.85
2023-04-11T02:43:28.709Z,1.50
2023-04-11T02:46:11.726Z,1.90
2023-04-11T02:48:41.131Z,1.55
2023-04-11T02:51:09.717Z,1.60
2023-04-11T02:54:02.674Z,1.48
2023-04-11T02:56:30.924Z,1.50
2023-04-11T03:01:55.845Z,1.58
2023-04-11T03:04:22.764Z,1.60
2023-04-11T03:07:03.800Z,1.60
2023-04-11T03:09:30.788Z,1.75
2023-04-11T03:11:58.746Z,1.80
2023-04-11T03:14:50.685Z,1.50
2023-04-11T03:17:45.769Z,2.00
2023-04-11T03:21:03.734Z,2.10
2023-04-11T03:23:37.718Z,2.25
2023-04-11T03:26:05.841Z,1.75
2023-04-11T03:28:34.734Z,1.70
2023-04-11T03:31:02.873Z,1.38
2023-04-11T03:33:54.697Z,1.17
2023-04-11T03:36:29.539Z,1.00
2023-04-11T03:39:03.171Z,1.00
2023-04-11T03:41:31.153Z,1.08
2023-04-11T03:43:58.836Z,1.20
2023-04-11T03:46:50.832Z,1.30
2023-04-11T03:49:18.708Z,0.70
2023-04-11T03:51:52.993Z,0.90
2023-04-11T03:54:21.234Z,0.90
2023-04-11T03:57:15.023Z,0.80
2023-04-11T03:59:42.686Z,0.95
2023-04-11T04:02:12.763Z,0.60
2023-04-11T04:04:48.652Z,0.77
2023-04-11T04:07:25.744Z,0.73
2023-04-11T04:09:58.717Z,0.63
2023-04-11T04:12:26.687Z,0.70
2023-04-11T04:21:12.673Z,0.77
2023-04-11T04:23:52.515Z,0.77
2023-04-11T04:26:32.760Z,1.00
2023-04-11T04:29:23.078Z,0.60
2023-04-11T04:35:08.115Z,0.60
2023-04-11T04:37:47.498Z,0.85
2023-04-11T04:40:38.235Z,1.10
2023-04-11T04:43:09.047Z,0.70
2023-04-11T04:45:42.681Z,0.77
2023-04-11T04:48:13.125Z,0.73
2023-04-11T04:50:41.038Z,1.05
2023-04-11T04:53:16.674Z,0.73
2023-04-11T04:56:08.941Z,0.70
2023-04-11T04:59:00.739Z,1.00
2023-04-11T05:04:38.691Z,0.57
2023-04-11T05:07:16.056Z,1.08
2023-04-11T05:09:52.719Z,0.90
2023-04-11T05:12:27.202Z,0.98
2023-04-11T05:15:26.045Z,1.10
2023-04-11T05:17:54.709Z,1.05
2023-04-11T05:20:24.708Z,1.00
2023-04-11T05:22:53.393Z,1.02
2023-04-11T05:25:22.813Z,1.20
2023-04-11T05:27:52.841Z,1.45
2023-04-11T05:30:26.794Z,1.20
2023-04-11T05:33:19.815Z,1.15
2023-04-11T05:36:14.292Z,0.80
2023-04-11T05:38:43.793Z,1.13
2023-04-11T05:47:06.019Z,1.33
2023-04-11T05:49:32.656Z,1.08
2023-04-11T05:52:00.679Z,1.10
2023-04-11T05:54:33.671Z,1.08
2023-04-11T05:57:02.323Z,1.20
2023-04-11T05:59:33.123Z,1.25
2023-04-11T06:02:00.970Z,1.13
2023-04-11T06:04:28.850Z,1.30
2023-04-11T06:07:22.066Z,1.60
2023-04-11T06:09:49.102Z,1.23
2023-04-11T06:12:16.664Z,1.02
2023-04-11T06:14:53.651Z,0.90
2023-04-11T06:17:20.744Z,1.05
2023-04-11T06:19:53.665Z,1.17
2023-04-11T06:22:20.678Z,1.17
2023-04-11T06:24:49.017Z,1.33
2023-04-11T06:27:21.674Z,0.80
2023-04-11T06:29:48.687Z,0.90
2023-04-11T06:32:21.987Z,1.25
2023-04-11T06:34:48.669Z,1.17
2023-04-11T06:37:20.942Z,1.35
2023-04-11T06:39:48.660Z,1.35
2023-04-11T06:42:16.768Z,1.42
2023-04-11T06:44:50.931Z,1.42
2023-04-11T06:50:11.295Z,1.50
2023-04-11T06:52:40.744Z,2.58
2023-04-11T06:55:10.067Z,3.03
2023-04-11T06:57:36.652Z,2.80
2023-04-11T07:00:28.791Z,2.60
2023-04-11T07:03:01.862Z,2.75
2023-04-11T07:05:39.448Z,2.80
2023-04-11T07:08:11.692Z,2.90
2023-04-11T07:10:38.667Z,3.08
2023-04-11T07:13:06.696Z,2.58
2023-04-11T07:16:03.879Z,2.42
2023-04-11T07:18:31.196Z,2.33
2023-04-11T07:20:58.680Z,1.90
2023-04-11T07:23:26.828Z,2.20
2023-04-11T07:25:55.813Z,1.90
2023-04-11T07:28:23.740Z,1.13
2023-04-11T07:30:50.681Z,0.90
2023-04-11T07:33:18.701Z,0.95
2023-04-11T07:38:38.671Z,0.60
2023-04-11T07:41:13.068Z,0.70
2023-04-11T07:43:45.706Z,0.50
2023-04-11T07:46:15.030Z,0.90
2023-04-11T07:48:43.195Z,0.70
2023-04-11T07:51:11.009Z,0.60
2023-04-11T07:53:47.684Z,0.60
2023-04-11T07:56:15.623Z,0.68
2023-04-11T07:58:42.994Z,0.50
2023-04-11T08:01:21.530Z,0.60
2023-04-11T08:03:49.087Z,0.57
2023-04-11T08:06:16.707Z,0.80
2023-04-11T08:08:49.359Z,0.57
2023-04-11T08:11:16.868Z,0.60
2023-04-11T08:13:45.052Z,0.60
2023-04-11T08:16:16.815Z,0.43
2023-04-11T08:18:45.886Z,0.80
2023-04-11T08:21:12.741Z,0.60
2023-04-11T08:23:42.172Z,0.52
2023-04-11T08:26:12.784Z,0.80
2023-04-11T08:28:42.827Z,0.70
2023-04-11T08:31:13.568Z,1.13
2023-04-11T08:33:41.105Z,0.95
2023-04-11T08:36:15.008Z,0.85
2023-04-11T08:38:46.673Z,0.70
2023-04-11T08:41:19.713Z,0.70
2023-04-11T08:43:47.886Z,0.80
2023-04-11T08:46:14.810Z,0.80
2023-04-11T08:48:42.690Z,0.80
2023-04-11T08:51:12.486Z,1.02
2023-04-11T08:53:41.382Z,1.30
2023-04-11T08:56:35.537Z,0.90
2023-04-11T08:59:03.177Z,0.98
2023-04-11T09:01:37.499Z,1.10
2023-04-11T09:04:05.652Z,1.00
2023-04-11T09:06:33.731Z,0.82
2023-04-11T09:09:05.161Z,1.10
2023-04-11T09:11:51.696Z,1.60
2023-04-11T09:14:23.781Z,1.77
2023-04-11T09:16:57.621Z,1.50
2023-04-11T09:19:30.933Z,1.52
2023-04-11T09:22:06.258Z,1.67
2023-04-11T09:27:28.758Z,1.83
2023-04-11T09:29:56.767Z,2.13
2023-04-11T09:32:36.106Z,2.90
2023-04-11T09:35:20.274Z,2.38
2023-04-11T09:40:48.685Z,2.35
2023-04-11T09:43:18.355Z,2.28
2023-04-11T09:45:54.164Z,2.20
2023-04-11T09:48:32.084Z,2.40
2023-04-11T09:51:18.105Z,2.22
2023-04-11T09:54:01.979Z,2.53
2023-04-11T09:56:30.606Z,2.60
2023-04-11T09:59:05.852Z,2.42
2023-04-11T10:01:33.272Z,2.60
2023-04-11T10:04:27.911Z,3.78
2023-04-11T10:07:14.487Z,2.15
2023-04-11T10:09:43.614Z,2.15
2023-04-11T10:12:10.961Z,2.20
2023-04-11T10:14:38.812Z,1.70
2023-04-11T10:17:36.151Z,1.40
2023-04-11T10:20:43.635Z,1.60
2023-04-11T10:23:11.397Z,1.30
2023-04-11T10:26:01.265Z,1.42
2023-04-11T10:28:45.691Z,1.48
2023-04-11T10:31:17.480Z,1.27
2023-04-11T10:34:19.359Z,1.58
2023-04-11T10:37:07.769Z,0.95
2023-04-11T10:42:44.021Z,1.00
2023-04-11T10:45:24.488Z,1.08
2023-04-11T10:48:12.934Z,1.05
2023-04-11T10:50:48.158Z,1.10
2023-04-11T10:53:37.098Z,1.10
2023-04-11T10:56:10.135Z,1.10
2023-04-11T10:58:40.290Z,1.27
2023-04-11T11:01:26.347Z,1.27
2023-04-11T11:04:01.040Z,1.40
2023-04-11T11:09:23.636Z,1.02
2023-04-11T11:15:13.359Z,0.50
2023-04-11T11:17:42.692Z,0.98
2023-04-11T11:20:19.835Z,0.73
2023-04-11T11:23:10.344Z,0.55
2023-04-11T11:25:38.676Z,0.40
2023-04-11T11:28:14.727Z,0.40
2023-04-11T11:31:13.664Z,0.50
2023-04-11T11:33:44.489Z,0.25
2023-04-11T11:36:15.737Z,0.40
2023-04-11T11:38:42.825Z,0.32
2023-04-11T11:41:11.000Z,0.52
2023-04-11T11:43:38.997Z,0.55
2023-04-11T11:46:14.329Z,0.38
2023-04-11T11:48:43.880Z,0.50
2023-04-11T11:51:44.563Z,0.52
2023-04-11T11:54:12.873Z,0.50
2023-04-11T11:56:41.591Z,0.63
2023-04-11T11:59:34.814Z,0.50
2023-04-11T12:02:27.670Z,0.80
2023-04-11T12:05:04.127Z,1.35
2023-04-11T12:07:43.538Z,0.73
2023-04-11T12:10:16.621Z,0.70
2023-04-11T12:12:53.096Z,0.50
2023-04-11T12:15:22.787Z,0.50
2023-04-11T12:17:57.506Z,0.52
2023-04-11T12:20:26.701Z,0.30
2023-04-11T12:22:58.863Z,0.40
2023-04-11T12:25:28.048Z,0.65
2023-04-11T12:27:54.885Z,0.60
2023-04-11T12:30:22.830Z,0.60
2023-04-11T12:32:50.916Z,0.60
2023-04-11T12:35:18.956Z,0.50
2023-04-11T12:37:46.741Z,0.95
2023-04-11T12:40:15.619Z,0.40
2023-04-11T12:46:00.756Z,0.50
2023-04-11T12:48:33.103Z,0.40
2023-04-11T12:51:00.823Z,0.57
2023-04-11T12:53:28.668Z,0.77
2023-04-11T12:55:56.898Z,0.50
2023-04-11T12:58:24.699Z,0.55
2023-04-11T13:00:57.960Z,0.60
2023-04-11T13:03:24.826Z,0.50
2023-04-11T13:05:52.755Z,1.00
2023-04-11T13:08:20.682Z,1.05
2023-04-11T13:10:48.767Z,0.73
2023-04-11T13:13:18.615Z,0.60
2023-04-11T13:15:46.775Z,0.60
2023-04-11T13:18:39.155Z,0.65
2023-04-11T13:21:12.869Z,0.80
2023-04-11T13:23:40.759Z,0.70
2023-04-11T13:26:38.163Z,0.80
2023-04-11T13:29:09.576Z,0.82
2023-04-11T13:34:54.654Z,0.70
2023-04-11T13:40:15.346Z,1.08
2023-04-11T13:42:42.704Z,1.00
2023-04-11T13:45:11.206Z,1.52
2023-04-11T13:47:39.190Z,1.02
2023-04-11T13:50:17.855Z,1.02
2023-04-11T13:52:49.882Z,1.00
2023-04-11T13:55:19.390Z,0.90
2023-04-11T13:57:46.877Z,0.95
2023-04-11T14:00:15.247Z,1.27
2023-04-11T14:02:48.704Z,0.90
2023-04-11T14:05:16.661Z,0.98
2023-04-11T14:07:49.506Z,1.77
2023-04-11T14:10:16.747Z,1.15
2023-04-11T14:12:44.802Z,0.95
2023-04-11T14:15:15.307Z,1.10
2023-04-11T14:17:44.000Z,1.40
2023-04-11T14:23:03.283Z,1.02
2023-04-11T14:26:01.751Z,1.13
2023-04-11T14:28:28.854Z,1.15
2023-04-11T14:31:22.173Z,1.42
2023-04-11T14:33:51.325Z,1.30
2023-04-11T14:36:18.950Z,1.33
2023-04-11T14:38:46.814Z,1.83
2023-04-11T14:41:14.901Z,1.67
2023-04-11T14:43:52.001Z,1.58
2023-04-11T14:46:18.842Z,1.58
2023-04-11T14:48:47.015Z,1.65
2023-04-11T14:51:38.747Z,1.55
2023-04-11T14:54:07.408Z,1.50
2023-04-11T14:56:34.976Z,1.35
2023-04-11T14:59:28.738Z,1.58
2023-04-11T15:01:57.377Z,1.75
2023-04-11T15:04:24.924Z,1.73
2023-04-11T15:06:58.482Z,1.30
2023-04-11T15:09:27.410Z,1.60
2023-04-11T15:11:54.797Z,1.83
2023-04-11T15:14:29.234Z,1.98
2023-04-11T15:16:56.839Z,1.70
2023-04-11T15:19:25.641Z,1.65
2023-04-11T15:21:53.052Z,1.88
2023-04-11T15:24:21.748Z,1.80
2023-04-11T15:26:48.816Z,1.80
2023-04-11T15:29:16.743Z,1.85
2023-04-11T15:31:49.811Z,1.50
2023-04-11T15:34:17.477Z,2.15
2023-04-11T15:36:45.230Z,2.08
2023-04-11T15:39:12.831Z,1.55
2023-04-11T15:47:50.735Z,1.67
2023-04-11T15:50:26.520Z,1.75
2023-04-11T15:52:57.724Z,1.45
2023-04-11T15:58:16.996Z,1.50
2023-04-11T16:00:47.065Z,1.75
2023-04-11T16:03:23.774Z,1.95
2023-04-11T16:08:50.601Z,1.90
2023-04-11T16:11:21.115Z,2.28
2023-04-11T16:13:48.710Z,1.70
2023-04-11T16:16:16.918Z,2.08
2023-04-11T16:18:44.662Z,1.80
2023-04-11T16:21:15.104Z,1.60
2023-04-11T16:26:35.484Z,1.83
2023-04-11T16:29:07.881Z,1.60
2023-04-11T16:31:35.796Z,1.95
2023-04-11T16:34:04.329Z,1.20
2023-04-11T16:36:36.227Z,1.50
2023-04-11T16:39:11.595Z,1.67
2023-04-11T16:41:42.704Z,1.83
2023-04-11T16:44:39.318Z,2.10
2023-04-11T16:47:45.728Z,1.33
2023-04-11T16:53:04.940Z,1.40
2023-04-11T17:01:42.116Z,1.58
2023-04-11T17:04:16.905Z,1.85
2023-04-11T17:06:49.841Z,1.85
2023-04-11T17:09:55.049Z,1.45
2023-04-11T17:12:49.097Z,2.10
2023-04-11T17:15:16.711Z,2.05
2023-04-11T17:17:44.733Z,2.30
2023-04-11T17:20:12.788Z,2.17
2023-04-11T17:22:43.145Z,1.80
2023-04-11T17:25:11.436Z,1.70
2023-04-11T17:27:39.954Z,1.70
2023-04-11T17:30:18.677Z,1.70
2023-04-11T17:33:10.791Z,1.83
2023-04-11T17:35:40.498Z,1.90
2023-04-11T17:38:19.831Z,1.60
2023-04-11T17:40:46.702Z,1.67
2023-04-11T17:43:39.865Z,1.40
2023-04-11T17:46:17.791Z,1.40
2023-04-11T17:48:44.962Z,2.30
2023-04-11T17:51:15.592Z,1.90
2023-04-11T17:53:45.072Z,1.83
2023-04-11T17:56:12.842Z,1.90
2023-04-11T17:58:50.304Z,1.60
2023-04-11T18:01:20.848Z,1.65
2023-04-11T18:03:50.345Z,1.80
2023-04-11T18:06:19.199Z,1.98
2023-04-11T18:08:53.316Z,1.50
2023-04-11T18:11:25.964Z,1.80
2023-04-11T18:13:55.411Z,1.45
2023-04-11T18:16:22.987Z,1.73
2023-04-11T18:18:50.663Z,1.67
2023-04-11T18:21:25.893Z,1.80
2023-04-11T18:23:52.957Z,1.90
2023-04-11T18:26:20.992Z,1.95
2023-04-11T18:28:48.662Z,1.83
2023-04-11T18:31:16.875Z,2.20
2023-04-11T18:34:13.136Z,1.95
2023-04-11T18:36:41.013Z,2.38
2023-04-11T18:39:14.036Z,1.88
2023-04-11T18:41:49.484Z,1.98
2023-04-11T18:44:16.669Z,2.10
2023-04-11T18:46:56.685Z,2.15
2023-04-11T18:49:48.999Z,1.98
2023-04-11T18:52:16.858Z,1.92
2023-04-11T18:54:48.905Z,2.10
2023-04-11T18:57:16.736Z,1.58
2023-04-11T19:06:45.395Z,2.35
2023-04-11T19:13:02.972Z,2.50
2023-04-11T19:15:55.990Z,2.40
2023-04-11T19:18:22.738Z,1.83
2023-04-11T19:20:54.858Z,2.70
2023-04-11T19:23:27.929Z,2.80
2023-04-11T19:26:06.474Z,3.28
2023-04-11T19:28:48.959Z,2.75
2023-04-11T19:31:17.120Z,2.55
2023-04-11T19:34:10.895Z,3.10
2023-04-11T19:36:38.779Z,3.08
2023-04-11T19:39:37.305Z,3.20
2023-04-11T19:42:52.264Z,2.75
2023-04-11T19:45:45.904Z,2.90
2023-04-11T19:48:12.746Z,2.70
2023-04-11T19:50:40.895Z,3.15
2023-04-11T19:53:17.694Z,3.05
2023-04-11T19:55:53.846Z,3.15
2023-04-11T19:58:26.724Z,2.97
2023-04-11T20:00:59.751Z,2.78
2023-04-11T20:03:27.682Z,2.88
2023-04-11T20:05:55.164Z,2.95
2023-04-11T20:08:23.033Z,3.50
2023-04-11T20:10:51.980Z,4.18
2023-04-11T20:13:23.850Z,4.00
2023-04-11T20:15:51.254Z,3.58
2023-04-11T20:18:19.891Z,4.45
2023-04-11T20:20:49.454Z,4.10
2023-04-11T20:23:42.819Z,4.40
2023-04-11T20:26:10.888Z,3.80
2023-04-11T20:28:44.461Z,4.10
2023-04-11T20:31:12.737Z,3.80
2023-04-11T20:33:41.030Z,4.53
2023-04-11T20:36:35.925Z,4.28
2023-04-11T20:39:08.781Z,4.07
2023-04-11T20:41:40.578Z,4.47
2023-04-11T20:44:13.326Z,5.20
2023-04-11T20:46:41.908Z,5.00
2023-04-11T20:49:15.443Z,5.35
2023-04-11T20:51:43.675Z,5.35
2023-04-11T20:57:08.740Z,5.63
2023-04-11T20:59:39.395Z,6.18
2023-04-11T21:02:06.854Z,6.93
2023-04-11T21:04:34.843Z,6.50
2023-04-11T21:07:02.963Z,5.80
2023-04-11T21:09:30.687Z,6.32
2023-04-11T21:11:58.759Z,6.75
2023-04-11T21:14:26.700Z,7.03
2023-04-11T21:16:54.719Z,7.28
2023-04-11T21:22:45.154Z,6.55
2023-04-11T21:25:12.777Z,7.28
2023-04-11T21:28:09.770Z,6.72
2023-04-11T21:30:36.929Z,7.03
2023-04-11T21:33:04.842Z,6.90
2023-04-11T21:35:32.759Z,6.82
2023-04-11T21:38:00.845Z,7.35
2023-04-11T21:40:28.887Z,6.25
2023-04-11T21:42:56.758Z,7.18
2023-04-11T21:45:24.739Z,6.85
2023-04-11T21:47:52.929Z,6.97
2023-04-11T21:50:20.821Z,7.07
2023-04-11T21:52:48.846Z,7.03
2023-04-11T21:55:21.698Z,7.85
2023-04-11T21:57:55.588Z,7.03
2023-04-11T22:00:22.941Z,7.03
2023-04-11T22:02:51.131Z,7.43
2023-04-11T22:05:19.316Z,6.40
2023-04-11T22:07:46.837Z,5.95
2023-04-11T22:10:23.813Z,6.78
2023-04-11T22:12:58.557Z,5.93
2023-04-11T22:15:26.699Z,6.50
2023-04-11T22:18:26.181Z,5.43
2023-04-11T22:21:03.046Z,6.50
2023-04-11T22:23:34.690Z,5.35
2023-04-11T22:28:56.752Z,4.75
2023-04-11T22:34:24.321Z,5.22
2023-04-11T22:37:16.807Z,4.80
2023-04-11T22:39:50.185Z,4.53
2023-04-11T22:42:18.745Z,4.50
2023-04-11T22:44:50.710Z,4.70
2023-04-11T22:47:21.788Z,4.57
2023-04-11T22:49:48.661Z,4.57
2023-04-11T22:52:46.075Z,5.25
2023-04-11T22:55:17.800Z,5.03
2023-04-11T22:57:44.826Z,4.57
2023-04-11T23:00:17.020Z,5.68
2023-04-11T23:02:45.148Z,4.60
2023-04-11T23:05:12.672Z,4.32
2023-04-11T23:07:40.721Z,4.95
2023-04-11T23:10:10.565Z,4.30
2023-04-11T23:18:46.639Z,4.05
2023-04-11T23:21:18.765Z,4.10
2023-04-11T23:23:52.323Z,4.40
2023-04-11T23:26:27.543Z,4.20
2023-04-11T23:28:55.493Z,4.13
2023-04-11T23:31:23.081Z,4.57
2023-04-11T23:33:50.623Z,4.07
2023-04-11T23:36:18.701Z,4.70
2023-04-11T23:44:54.958Z,4.22
2023-04-11T23:47:51.951Z,4.80
2023-04-11T23:50:19.156Z,4.28
2023-04-11T23:52:47.468Z,5.28
2023-04-11T23:55:26.700Z,4.03
2023-04-11T23:57:58.672Z,4.20
